createdAt,value
2022-12-22T00:03:43.587Z,27.60
2022-12-22T00:09:05.782Z,25.47
2022-12-22T00:14:26.112Z,23.77
2022-12-22T00:19:44.592Z,24.57
2022-12-22T00:25:07.533Z,23.20
2022-12-22T00:30:30.271Z,27.80
2022-12-22T00:35:48.041Z,23.00
2022-12-22T00:41:07.960Z,23.73
2022-12-22T00:46:27.865Z,21.60
2022-12-22T00:51:46.438Z,25.43
2022-12-22T00:57:06.298Z,21.27
2022-12-22T01:02:23.872Z,23.63
2022-12-22T01:07:42.301Z,27.00
2022-12-22T01:13:02.382Z,24.97
2022-12-22T01:18:20.765Z,27.10
2022-12-22T01:23:39.203Z,22.53
2022-12-22T01:28:59.193Z,24.80
2022-12-22T01:34:16.537Z,23.93
2022-12-22T01:39:33.896Z,23.77
2022-12-22T01:44:53.858Z,25.03
2022-12-22T01:50:11.171Z,22.37
2022-12-22T01:55:32.731Z,20.27
2022-12-22T02:00:52.644Z,20.53
2022-12-22T02:06:20.871Z,20.30
2022-12-22T02:11:51.156Z,21.20
2022-12-22T02:17:19.794Z,24.93
2022-12-22T02:22:51.772Z,17.83
2022-12-22T02:28:12.964Z,20.77
2022-12-22T02:33:30.461Z,20.07
2022-12-22T02:39:00.138Z,19.37
2022-12-22T02:44:34.126Z,20.53
2022-12-22T02:49:55.607Z,22.30
2022-12-22T02:55:14.216Z,21.97
2022-12-22T03:00:34.529Z,21.67
2022-12-22T03:05:52.112Z,19.93
2022-12-22T03:11:09.510Z,24.17
2022-12-22T03:16:29.623Z,20.23
2022-12-22T03:21:46.872Z,22.93
2022-12-22T03:26:51.828Z,25.60
2022-12-22T03:31:59.399Z,25.97
2022-12-22T03:37:04.385Z,25.67
2022-12-22T03:42:21.913Z,27.97
2022-12-22T03:47:29.494Z,24.53
2022-12-22T03:52:34.467Z,27.40
2022-12-22T03:57:41.774Z,24.43
2022-12-22T04:02:49.362Z,24.30
2022-12-22T04:07:57.596Z,29.33
2022-12-22T04:13:02.664Z,26.67
2022-12-22T04:18:15.322Z,26.73
2022-12-22T04:23:21.763Z,27.13
2022-12-22T04:28:26.873Z,26.87
2022-12-22T04:33:35.677Z,26.53
2022-12-22T04:38:41.119Z,25.80
2022-12-22T04:43:46.196Z,25.10
2022-12-22T04:48:59.660Z,28.20
2022-12-22T04:54:05.696Z,26.67
2022-12-22T04:59:10.854Z,25.67
2022-12-22T05:04:23.495Z,25.70
2022-12-22T05:09:28.833Z,23.83
2022-12-22T05:14:35.108Z,25.20
2022-12-22T05:19:43.576Z,22.90
2022-12-22T05:24:48.502Z,26.23
2022-12-22T05:29:53.413Z,21.57
2022-12-22T05:35:04.315Z,26.27
2022-12-22T05:40:10.971Z,24.37
2022-12-22T05:45:19.875Z,20.47
2022-12-22T05:50:28.291Z,23.00
2022-12-22T05:55:37.669Z,24.00
2022-12-22T06:00:45.010Z,24.30
2022-12-22T06:05:55.889Z,22.50
2022-12-22T06:11:02.085Z,23.93
2022-12-22T06:16:07.390Z,24.60
2022-12-22T06:21:14.963Z,25.30
2022-12-22T06:26:20.910Z,25.20
2022-12-22T06:31:26.491Z,23.40
2022-12-22T06:36:36.671Z,23.40
2022-12-22T06:41:59.701Z,21.93
2022-12-22T06:47:04.837Z,25.03
2022-12-22T06:52:14.972Z,24.50
2022-12-22T06:57:19.955Z,22.43
2022-12-22T07:02:25.366Z,21.13
2022-12-22T07:07:33.128Z,23.67
2022-12-22T07:12:38.225Z,22.03
2022-12-22T07:17:44.186Z,21.40
2022-12-22T07:22:51.847Z,22.27
2022-12-22T07:27:56.747Z,24.53
2022-12-22T07:33:01.724Z,22.37
2022-12-22T07:38:11.535Z,20.57
2022-12-22T07:43:16.418Z,19.60
2022-12-22T07:48:34.630Z,23.93
2022-12-22T07:53:44.126Z,22.27
2022-12-22T07:58:51.693Z,21.03
2022-12-22T08:03:58.307Z,20.90
2022-12-22T08:09:09.911Z,20.23
2022-12-22T08:14:17.651Z,18.53
2022-12-22T08:19:22.677Z,21.50
2022-12-22T08:24:30.525Z,21.43
2022-12-22T08:29:41.531Z,21.30
2022-12-22T08:34:49.403Z,20.83
2022-12-22T08:40:01.029Z,18.17
2022-12-22T08:45:13.825Z,19.93
2022-12-22T08:50:18.958Z,19.80
2022-12-22T08:55:26.535Z,19.47
2022-12-22T09:00:37.736Z,17.67
2022-12-22T09:05:42.895Z,20.07
2022-12-22T09:10:51.093Z,16.30
2022-12-22T09:15:59.373Z,17.07
2022-12-22T09:21:04.992Z,15.40
2022-12-22T09:26:17.556Z,17.60
2022-12-22T09:31:29.660Z,17.17
2022-12-22T09:36:35.403Z,19.03
2022-12-22T09:41:51.029Z,17.83
2022-12-22T09:46:57.774Z,18.30
2022-12-22T09:52:06.202Z,17.30
2022-12-22T09:57:17.641Z,15.80
2022-12-22T10:02:31.811Z,16.33
2022-12-22T10:07:40.222Z,17.20
2022-12-22T10:12:48.741Z,16.90
2022-12-22T10:17:56.865Z,16.23
2022-12-22T10:23:06.878Z,16.70
2022-12-22T10:28:22.471Z,17.90
2022-12-22T10:33:27.373Z,15.03
2022-12-22T10:38:36.346Z,16.87
2022-12-22T10:43:51.158Z,14.70
2022-12-22T10:49:10.973Z,14.73
2022-12-22T10:54:29.165Z,15.73
2022-12-22T10:59:37.481Z,15.40
2022-12-22T11:04:45.617Z,13.73
2022-12-22T11:09:50.783Z,14.17
2022-12-22T11:15:08.833Z,15.17
2022-12-22T11:20:33.684Z,13.10
2022-12-22T11:25:50.495Z,13.23
2022-12-22T11:31:12.779Z,14.20
2022-12-22T11:36:28.112Z,13.40
2022-12-22T11:41:47.204Z,11.97
2022-12-22T11:47:02.728Z,10.60
2022-12-22T11:52:31.990Z,10.30
2022-12-22T11:57:49.039Z,10.80
2022-12-22T12:03:18.503Z,11.40
2022-12-22T12:08:35.666Z,10.97
2022-12-22T12:13:48.154Z,10.60
2022-12-22T12:19:23.152Z,8.37
2022-12-22T12:24:55.578Z,9.90
2022-12-22T12:35:53.771Z,11.10
2022-12-22T12:41:12.855Z,9.20
2022-12-22T12:46:57.341Z,9.80
2022-12-22T12:52:06.487Z,8.67
2022-12-22T12:57:28.721Z,8.37
2022-12-22T13:02:43.174Z,9.87
2022-12-22T13:08:14.992Z,8.57
2022-12-22T13:13:50.840Z,7.10
2022-12-22T13:19:03.028Z,8.50
2022-12-22T13:24:25.698Z,7.70
2022-12-22T13:29:42.187Z,9.57
2022-12-22T13:35:29.228Z,11.97
2022-12-22T13:40:24.341Z,11.87
2022-12-22T13:45:43.040Z,9.67
2022-12-22T13:50:51.802Z,9.70
2022-12-22T13:56:04.256Z,13.37
2022-12-22T14:01:19.263Z,17.07
2022-12-22T14:06:30.439Z,20.17
2022-12-22T14:11:38.402Z,25.10
2022-12-22T14:16:50.870Z,13.13
2022-12-22T14:22:08.382Z,12.87
2022-12-22T14:27:28.884Z,14.00
2022-12-22T14:32:49.124Z,15.00
2022-12-22T14:38:10.783Z,14.47
2022-12-22T14:43:35.312Z,13.63
2022-12-22T14:48:43.410Z,7.70
2022-12-22T14:53:55.994Z,4.30
2022-12-22T14:59:26.607Z,3.13
2022-12-22T15:04:34.191Z,2.60
2022-12-22T15:15:17.153Z,2.83
2022-12-22T15:20:31.183Z,2.10
2022-12-22T15:25:40.395Z,2.40
2022-12-22T15:30:50.653Z,3.17
2022-12-22T15:35:55.732Z,1.50
2022-12-22T15:41:01.543Z,2.40
2022-12-22T15:46:10.641Z,2.57
2022-12-22T15:51:25.879Z,4.43
2022-12-22T15:56:34.717Z,4.80
2022-12-22T16:01:45.718Z,3.17
2022-12-22T16:06:53.572Z,3.10
2022-12-22T16:12:00.462Z,4.40
2022-12-22T16:17:09.250Z,8.20
2022-12-22T16:22:14.684Z,8.03
2022-12-22T16:27:20.583Z,2.77
2022-12-22T16:32:31.482Z,3.37
2022-12-22T16:37:36.778Z,3.83
2022-12-22T16:48:20.499Z,7.67
2022-12-22T16:53:25.441Z,3.27
2022-12-22T16:58:30.524Z,8.27
2022-12-22T17:03:41.939Z,13.77
2022-12-22T17:08:51.567Z,10.80
2022-12-22T17:14:01.185Z,14.27
2022-12-22T17:19:09.073Z,16.60
2022-12-22T17:24:21.597Z,16.23
2022-12-22T17:29:32.265Z,12.23
2022-12-22T17:34:40.098Z,13.47
2022-12-22T17:39:46.157Z,12.43
2022-12-22T17:44:51.833Z,11.90
2022-12-22T17:50:02.521Z,17.60
2022-12-22T17:55:08.699Z,17.90
2022-12-22T18:00:19.588Z,15.13
2022-12-22T18:05:33.980Z,16.23
2022-12-22T18:10:46.902Z,13.53
2022-12-22T18:15:55.931Z,15.73
2022-12-22T18:21:07.500Z,18.63
2022-12-22T18:26:22.330Z,17.57
2022-12-22T18:31:29.466Z,19.13
2022-12-22T18:36:39.904Z,17.53
2022-12-22T18:41:45.172Z,16.70
2022-12-22T18:46:50.630Z,17.57
2022-12-22T18:51:59.217Z,16.13
2022-12-22T18:57:04.148Z,17.73
2022-12-22T19:02:22.255Z,17.27
2022-12-22T19:07:34.528Z,19.60
2022-12-22T19:12:39.576Z,21.10
2022-12-22T19:17:45.610Z,19.43
2022-12-22T19:22:53.927Z,19.37
2022-12-22T19:28:08.074Z,16.53
2022-12-22T19:33:21.167Z,19.73
2022-12-22T19:38:30.881Z,22.17
2022-12-22T19:43:36.330Z,20.20
2022-12-22T19:48:44.814Z,20.10
2022-12-22T19:53:54.408Z,20.23
2022-12-22T19:59:01.213Z,20.33
2022-12-22T20:04:06.140Z,26.13
2022-12-22T20:09:13.787Z,17.47
2022-12-22T20:14:20.273Z,20.83
2022-12-22T20:19:26.267Z,18.97
2022-12-22T20:24:34.799Z,18.57
2022-12-22T20:29:39.800Z,16.87
2022-12-22T20:34:45.363Z,19.43
2022-12-22T20:39:53.021Z,18.90
2022-12-22T20:45:02.856Z,22.87
2022-12-22T20:50:24.041Z,16.10
2022-12-22T20:55:32.467Z,19.10
2022-12-22T21:00:37.533Z,19.23
2022-12-22T21:05:44.236Z,18.87
2022-12-22T21:10:53.253Z,15.83
2022-12-22T21:15:58.331Z,18.77
2022-12-22T21:21:03.485Z,13.60
2022-12-22T21:26:21.832Z,13.17
2022-12-22T21:31:26.940Z,11.80
2022-12-22T21:36:34.931Z,12.70
2022-12-22T21:41:55.487Z,12.50
2022-12-22T21:47:01.283Z,13.57
2022-12-22T21:52:06.509Z,12.77
2022-12-22T21:57:19.866Z,16.83
2022-12-22T22:02:25.064Z,14.80
2022-12-22T22:07:32.374Z,13.83
2022-12-22T22:12:40.407Z,13.30
2022-12-22T22:17:46.356Z,17.07
2022-12-22T22:22:53.518Z,15.93
2022-12-22T22:28:03.513Z,14.60
2022-12-22T22:33:08.881Z,14.97
2022-12-22T22:38:14.927Z,16.03
2022-12-22T22:43:22.387Z,17.00
2022-12-22T22:48:28.691Z,13.17
2022-12-22T22:53:33.764Z,14.20
2022-12-22T22:58:42.156Z,16.03
2022-12-22T23:03:47.298Z,17.33
2022-12-22T23:08:54.328Z,14.13
2022-12-22T23:14:01.974Z,16.67
2022-12-22T23:19:08.756Z,15.63
2022-12-22T23:24:17.712Z,18.47
2022-12-22T23:29:25.846Z,14.83
2022-12-22T23:34:30.965Z,14.73
2022-12-22T23:39:35.911Z,14.10
2022-12-22T23:44:45.009Z,13.07
2022-12-22T23:49:50.468Z,11.67
2022-12-22T23:54:55.443Z,13.20
